createdAt,value
2023-03-21T00:00:59.535Z,77.68
2023-03-21T00:02:31.992Z,77.25
2023-03-21T00:04:03.802Z,77.15
2023-03-21T00:05:39.342Z,76.99
2023-03-21T00:07:11.098Z,78.18
2023-03-21T00:08:44.715Z,79.40
2023-03-21T00:10:23.947Z,79.11
2023-03-21T00:12:01.701Z,77.96
2023-03-21T00:13:33.626Z,77.88
2023-03-21T00:15:06.390Z,77.89
2023-03-21T00:16:40.575Z,77.50
2023-03-21T00:18:12.526Z,77.82
2023-03-21T00:19:46.325Z,77.67
2023-03-21T00:23:10.615Z,77.60
2023-03-21T00:24:43.592Z,78.36
2023-03-21T00:26:15.510Z,77.54
2023-03-21T00:28:01.412Z,79.35
2023-03-21T00:29:38.702Z,79.33
2023-03-21T00:31:10.308Z,79.05
2023-03-21T00:32:55.147Z,78.23
2023-03-21T00:34:36.916Z,78.39
2023-03-21T00:36:15.886Z,78.77
2023-03-21T00:37:47.573Z,81.49
2023-03-21T00:39:19.227Z,80.20
2023-03-21T00:40:52.300Z,78.68
2023-03-21T00:42:24.002Z,78.41
2023-03-21T00:43:55.861Z,77.83
2023-03-21T00:45:27.974Z,78.38
2023-03-21T00:47:07.541Z,78.28
2023-03-21T00:48:39.474Z,80.07
2023-03-21T00:50:11.968Z,78.39
2023-03-21T00:51:43.774Z,78.62
2023-03-21T00:53:15.610Z,78.26
2023-03-21T00:54:47.228Z,78.08
2023-03-21T00:56:20.303Z,78.51
2023-03-21T00:58:01.115Z,78.43
2023-03-21T00:59:33.578Z,78.67
2023-03-21T01:01:06.605Z,79.49
2023-03-21T01:02:38.577Z,79.75
2023-03-21T01:04:14.469Z,79.15
2023-03-21T01:06:04.331Z,79.54
2023-03-21T01:07:35.937Z,78.77
2023-03-21T01:09:08.116Z,78.74
2023-03-21T01:10:40.231Z,79.32
2023-03-21T01:12:13.190Z,78.56
2023-03-21T01:13:53.685Z,78.22
2023-03-21T01:15:29.388Z,80.12
2023-03-21T01:17:00.973Z,81.05
2023-03-21T01:18:32.884Z,80.44
2023-03-21T01:20:06.518Z,80.19
2023-03-21T01:21:38.125Z,78.86
2023-03-21T01:23:10.086Z,79.70
2023-03-21T01:24:52.375Z,79.03
2023-03-21T01:26:26.876Z,79.52
2023-03-21T01:27:59.793Z,79.29
2023-03-21T01:29:31.551Z,79.35
2023-03-21T01:31:03.615Z,79.42
2023-03-21T01:32:35.352Z,77.92
2023-03-21T01:34:06.948Z,79.10
2023-03-21T01:35:49.171Z,81.11
2023-03-21T01:37:26.518Z,80.62
2023-03-21T01:38:58.159Z,79.10
2023-03-21T01:40:30.199Z,78.36
2023-03-21T01:42:01.906Z,79.38
2023-03-21T01:43:35.842Z,78.39
2023-03-21T01:45:46.767Z,81.13
2023-03-21T01:47:18.400Z,81.26
2023-03-21T01:48:52.577Z,81.04
2023-03-21T01:50:24.198Z,79.64
2023-03-21T01:52:01.093Z,79.50
2023-03-21T01:53:36.252Z,78.41
2023-03-21T01:55:11.808Z,78.21
2023-03-21T01:56:45.323Z,77.75
2023-03-21T01:58:18.211Z,78.65
2023-03-21T01:59:51.514Z,78.45
2023-03-21T02:01:23.262Z,79.00
2023-03-21T02:03:06.130Z,79.25
2023-03-21T02:04:55.840Z,79.62
2023-03-21T02:06:31.760Z,79.24
2023-03-21T02:08:03.511Z,79.27
2023-03-21T02:09:36.367Z,79.51
2023-03-21T02:11:08.232Z,79.50
2023-03-21T02:12:39.831Z,79.38
2023-03-21T02:14:15.321Z,78.84
2023-03-21T02:15:53.655Z,80.47
2023-03-21T02:17:28.428Z,80.00
2023-03-21T02:19:02.868Z,79.88
2023-03-21T02:20:52.283Z,79.53
2023-03-21T02:22:49.480Z,82.10
2023-03-21T02:24:54.536Z,81.59
2023-03-21T02:27:09.509Z,80.01
2023-03-21T02:28:41.952Z,79.81
2023-03-21T02:30:37.601Z,80.34
2023-03-21T02:32:34.892Z,80.78
2023-03-21T02:34:39.756Z,80.11
2023-03-21T02:36:22.330Z,79.11
2023-03-21T02:38:00.664Z,79.97
2023-03-21T02:39:40.060Z,83.16
2023-03-21T02:41:19.088Z,81.46
2023-03-21T02:43:00.981Z,81.79
2023-03-21T02:44:35.586Z,81.46
2023-03-21T02:46:08.950Z,81.23
2023-03-21T02:47:42.215Z,80.62
2023-03-21T02:49:16.848Z,81.85
2023-03-21T02:50:49.313Z,81.89
2023-03-21T02:52:37.353Z,82.19
2023-03-21T02:54:45.435Z,81.49
2023-03-21T02:56:04.676Z,80.28
2023-03-21T02:57:42.556Z,80.30
2023-03-21T02:59:15.716Z,80.43
2023-03-21T03:00:47.538Z,81.16
2023-03-21T03:02:23.360Z,81.15
2023-03-21T03:03:55.013Z,80.68
2023-03-21T03:05:28.350Z,80.76
2023-03-21T03:07:09.290Z,81.06
2023-03-21T03:08:56.079Z,80.92
2023-03-21T03:10:38.087Z,80.54
2023-03-21T03:12:12.576Z,80.57
2023-03-21T03:13:53.233Z,79.43
2023-03-21T03:15:29.251Z,80.50
2023-03-21T03:17:06.465Z,79.85
2023-03-21T03:18:41.543Z,80.81
2023-03-21T03:20:18.741Z,81.03
2023-03-21T03:21:52.989Z,81.28
2023-03-21T03:23:27.631Z,81.67
2023-03-21T03:25:04.807Z,82.97
2023-03-21T03:26:46.887Z,81.09
2023-03-21T03:28:21.650Z,80.64
2023-03-21T03:29:53.298Z,80.43
2023-03-21T03:31:26.143Z,81.76
2023-03-21T03:32:59.440Z,80.99
2023-03-21T03:34:33.084Z,80.99
2023-03-21T03:36:06.954Z,80.77
2023-03-21T03:37:39.069Z,80.93
2023-03-21T03:39:11.747Z,82.40
2023-03-21T03:40:45.673Z,81.71
2023-03-21T03:42:27.977Z,80.48
2023-03-21T03:44:00.420Z,79.68
2023-03-21T03:45:34.414Z,80.30
2023-03-21T03:47:07.638Z,81.10
2023-03-21T03:48:46.755Z,81.23
2023-03-21T03:50:20.688Z,80.77
2023-03-21T03:51:54.496Z,80.04
2023-03-21T03:53:28.634Z,80.98
2023-03-21T03:55:00.200Z,80.72
2023-03-21T03:56:31.805Z,81.12
2023-03-21T03:58:06.465Z,81.83
2023-03-21T03:59:43.582Z,81.95
2023-03-21T04:01:15.307Z,82.51
2023-03-21T04:02:47.066Z,82.42
2023-03-21T04:04:18.743Z,85.30
2023-03-21T04:05:50.452Z,85.02
2023-03-21T04:07:22.314Z,84.87
2023-03-21T04:08:53.936Z,82.43
2023-03-21T04:10:25.800Z,81.92
2023-03-21T04:11:57.425Z,81.12
2023-03-21T04:13:30.706Z,80.85
2023-03-21T04:15:09.980Z,80.98
2023-03-21T04:16:42.206Z,81.46
2023-03-21T04:18:13.801Z,81.16
2023-03-21T04:19:46.273Z,80.47
2023-03-21T04:21:17.891Z,82.36
2023-03-21T04:22:49.470Z,81.58
2023-03-21T04:24:21.084Z,84.50
2023-03-21T04:25:56.576Z,82.26
2023-03-21T04:27:28.834Z,82.19
2023-03-21T04:29:02.120Z,82.22
2023-03-21T04:30:34.289Z,82.47
2023-03-21T04:32:16.133Z,83.23
2023-03-21T04:33:47.942Z,81.82
2023-03-21T04:35:20.177Z,81.27
2023-03-21T04:36:53.973Z,82.06
2023-03-21T04:38:30.522Z,82.59
2023-03-21T04:40:06.645Z,82.93
2023-03-21T04:41:38.993Z,86.15
2023-03-21T04:43:10.892Z,85.19
2023-03-21T04:44:43.812Z,83.41
2023-03-21T04:46:15.607Z,81.27
2023-03-21T04:47:47.336Z,81.79
2023-03-21T04:49:19.203Z,81.95
2023-03-21T04:50:51.218Z,83.31
2023-03-21T04:52:25.199Z,81.23
2023-03-21T04:53:59.641Z,81.21
2023-03-21T04:55:32.407Z,84.10
2023-03-21T04:57:04.748Z,83.85
2023-03-21T04:58:36.598Z,81.97
2023-03-21T05:00:11.070Z,82.79
2023-03-21T05:01:43.728Z,81.40
2023-03-21T05:03:19.761Z,81.08
2023-03-21T05:04:51.424Z,81.26
2023-03-21T05:06:23.046Z,81.47
2023-03-21T05:07:54.596Z,82.15
2023-03-21T05:09:26.213Z,82.98
2023-03-21T05:10:57.810Z,83.54
2023-03-21T05:12:29.371Z,81.86
2023-03-21T05:14:01.161Z,81.61
2023-03-21T05:15:34.166Z,82.51
2023-03-21T05:17:05.861Z,82.31
2023-03-21T05:18:38.839Z,83.85
2023-03-21T05:20:11.324Z,81.79
2023-03-21T05:21:43.534Z,82.52
2023-03-21T05:23:18.625Z,84.38
2023-03-21T05:24:50.395Z,85.18
2023-03-21T05:26:22.327Z,82.00
2023-03-21T05:27:54.159Z,84.17
2023-03-21T05:29:25.820Z,84.76
2023-03-21T05:30:58.959Z,85.66
2023-03-21T05:32:30.609Z,85.17
2023-03-21T05:34:02.311Z,83.98
2023-03-21T05:35:34.139Z,84.30
2023-03-21T05:37:05.913Z,82.80
2023-03-21T05:38:37.613Z,83.07
2023-03-21T05:40:10.293Z,84.04
2023-03-21T05:41:41.853Z,82.85
2023-03-21T05:43:13.422Z,85.22
2023-03-21T05:44:45.798Z,83.00
2023-03-21T05:46:18.776Z,85.57
2023-03-21T05:47:50.481Z,86.12
2023-03-21T05:49:22.738Z,84.73
2023-03-21T05:50:54.453Z,84.83
2023-03-21T05:52:26.745Z,83.64
2023-03-21T05:53:58.293Z,85.38
2023-03-21T05:55:29.934Z,84.83
2023-03-21T05:57:01.549Z,83.43
2023-03-21T05:58:33.119Z,84.03
2023-03-21T06:00:06.800Z,84.58
2023-03-21T06:01:39.808Z,84.05
2023-03-21T06:03:11.380Z,82.64
2023-03-21T06:04:42.934Z,86.01
2023-03-21T06:06:14.514Z,86.42
2023-03-21T06:07:46.077Z,85.59
2023-03-21T06:09:17.786Z,84.22
2023-03-21T06:10:49.366Z,85.15
2023-03-21T06:12:20.949Z,84.11
2023-03-21T06:13:52.612Z,83.38
2023-03-21T06:15:25.373Z,83.35
2023-03-21T06:16:58.617Z,82.68
2023-03-21T06:18:30.270Z,82.87
2023-03-21T06:20:02.112Z,82.97
2023-03-21T06:21:34.024Z,82.70
2023-03-21T06:23:05.720Z,83.66
2023-03-21T06:24:37.609Z,82.38
2023-03-21T06:26:09.339Z,82.93
2023-03-21T06:27:41.001Z,82.16
2023-03-21T06:29:13.111Z,84.37
2023-03-21T06:30:44.782Z,83.40
2023-03-21T06:32:17.713Z,84.33
2023-03-21T06:33:49.347Z,84.94
2023-03-21T06:35:21.174Z,83.50
2023-03-21T06:36:54.653Z,81.42
2023-03-21T06:38:26.440Z,82.53
2023-03-21T06:39:58.010Z,82.20
2023-03-21T06:41:29.763Z,83.68
2023-03-21T06:43:01.454Z,85.06
2023-03-21T06:44:33.189Z,85.64
2023-03-21T06:46:05.643Z,81.24
2023-03-21T06:47:38.943Z,84.84
2023-03-21T06:49:10.648Z,85.76
2023-03-21T06:50:42.307Z,86.43
2023-03-21T06:52:14.054Z,85.59
2023-03-21T06:53:45.748Z,86.02
2023-03-21T06:55:19.362Z,85.08
2023-03-21T06:56:51.078Z,83.92
2023-03-21T06:58:23.126Z,85.87
2023-03-21T06:59:57.911Z,85.05
2023-03-21T07:01:30.606Z,85.61
2023-03-21T07:03:03.701Z,85.04
2023-03-21T07:04:35.343Z,84.68
2023-03-21T07:06:08.612Z,84.90
2023-03-21T07:07:40.463Z,85.85
2023-03-21T07:09:12.286Z,84.54
2023-03-21T07:10:45.432Z,85.75
2023-03-21T07:12:17.509Z,84.56
2023-03-21T07:13:49.250Z,84.82
2023-03-21T07:15:21.074Z,85.43
2023-03-21T07:16:52.780Z,85.35
2023-03-21T07:18:27.455Z,86.88
2023-03-21T07:19:59.138Z,86.52
2023-03-21T07:21:31.290Z,85.69
2023-03-21T07:23:02.888Z,85.21
2023-03-21T07:24:34.532Z,83.74
2023-03-21T07:26:06.819Z,83.88
2023-03-21T07:27:40.751Z,83.38
2023-03-21T07:29:12.779Z,83.03
2023-03-21T07:30:44.642Z,83.97
2023-03-21T07:32:16.528Z,84.60
2023-03-21T07:33:49.560Z,83.41
2023-03-21T07:35:21.570Z,84.49
2023-03-21T07:36:53.234Z,83.67
2023-03-21T07:38:24.880Z,84.46
2023-03-21T07:39:56.582Z,84.91
2023-03-21T07:41:28.244Z,84.68
2023-03-21T07:42:59.923Z,83.95
2023-03-21T07:44:33.522Z,84.61
2023-03-21T07:46:06.047Z,84.67
2023-03-21T07:47:37.988Z,84.54
2023-03-21T07:49:10.937Z,84.14
2023-03-21T07:50:42.557Z,83.90
2023-03-21T07:52:14.179Z,83.21
2023-03-21T07:53:48.479Z,83.59
2023-03-21T07:55:20.169Z,83.37
2023-03-21T07:56:51.931Z,83.57
2023-03-21T07:58:23.613Z,83.00
2023-03-21T07:59:55.414Z,82.57
2023-03-21T08:01:27.077Z,82.28
2023-03-21T08:02:59.540Z,82.60
2023-03-21T08:04:32.626Z,83.04
2023-03-21T08:06:04.860Z,82.71
2023-03-21T08:07:36.505Z,82.49
2023-03-21T08:09:08.151Z,81.95
2023-03-21T08:10:39.961Z,82.40
2023-03-21T08:12:11.669Z,82.35
2023-03-21T08:13:43.288Z,82.27
2023-03-21T08:15:15.301Z,82.46
2023-03-21T08:16:47.018Z,82.18
2023-03-21T08:18:18.853Z,82.12
2023-03-21T08:19:51.839Z,82.19
2023-03-21T08:21:23.463Z,81.53
2023-03-21T08:22:55.365Z,81.38
2023-03-21T08:24:27.109Z,80.92
2023-03-21T08:25:58.764Z,81.20
2023-03-21T08:27:30.777Z,81.02
2023-03-21T08:29:02.446Z,80.15
2023-03-21T08:30:34.105Z,80.53
2023-03-21T08:32:06.162Z,81.63
2023-03-21T08:33:37.812Z,80.82
2023-03-21T08:35:12.199Z,81.58
2023-03-21T08:36:43.828Z,80.17
2023-03-21T08:38:15.551Z,80.00
2023-03-21T08:39:47.222Z,80.16
2023-03-21T08:41:20.711Z,81.07
2023-03-21T08:42:52.366Z,80.96
2023-03-21T08:44:25.350Z,80.87
2023-03-21T08:45:57.048Z,79.87
2023-03-21T08:47:28.725Z,79.88
2023-03-21T08:49:00.378Z,80.04
2023-03-21T08:50:33.515Z,79.99
2023-03-21T08:52:06.182Z,79.98
2023-03-21T08:53:38.069Z,80.44
2023-03-21T08:55:10.237Z,80.07
2023-03-21T08:56:41.971Z,79.97
2023-03-21T08:58:13.781Z,80.18
2023-03-21T08:59:45.417Z,80.70
2023-03-21T09:01:17.066Z,79.90
2023-03-21T09:02:51.420Z,81.02
2023-03-21T09:04:25.888Z,80.66
2023-03-21T09:05:59.068Z,80.48
2023-03-21T09:07:34.631Z,80.60
2023-03-21T09:09:07.729Z,79.17
2023-03-21T09:10:39.400Z,79.00
2023-03-21T09:12:11.044Z,79.20
2023-03-21T09:13:42.658Z,79.79
2023-03-21T09:15:14.480Z,79.72
2023-03-21T09:16:46.189Z,80.26
2023-03-21T09:18:18.182Z,78.82
2023-03-21T09:19:50.788Z,79.52
2023-03-21T09:21:24.166Z,78.33
2023-03-21T09:22:56.201Z,78.84
2023-03-21T09:24:27.879Z,78.75
2023-03-21T09:25:59.525Z,77.90
2023-03-21T09:27:31.652Z,78.43
2023-03-21T09:29:06.029Z,77.98
2023-03-21T09:30:37.815Z,77.08
2023-03-21T09:32:09.583Z,76.03
2023-03-21T09:33:41.377Z,76.06
2023-03-21T09:35:13.272Z,76.31
2023-03-21T09:36:48.339Z,77.46
2023-03-21T09:38:19.959Z,78.26
2023-03-21T09:39:52.191Z,78.32
2023-03-21T09:41:46.455Z,77.89
2023-03-21T09:43:23.701Z,77.61
2023-03-21T09:45:01.811Z,76.85
2023-03-21T09:46:36.781Z,76.33
2023-03-21T09:48:15.333Z,77.49
2023-03-21T09:49:51.862Z,76.74
2023-03-21T09:51:26.210Z,74.84
2023-03-21T09:53:00.327Z,73.73
2023-03-21T09:54:34.650Z,73.81
2023-03-21T09:56:06.904Z,73.38
2023-03-21T09:57:40.149Z,72.56
2023-03-21T09:59:19.515Z,72.96
2023-03-21T10:00:56.681Z,72.66
2023-03-21T10:02:36.625Z,72.83
2023-03-21T10:04:10.988Z,71.23
2023-03-21T10:05:45.962Z,70.83
2023-03-21T10:07:19.866Z,70.29
2023-03-21T10:08:53.185Z,69.71
2023-03-21T10:10:26.594Z,69.58
2023-03-21T10:12:00.671Z,68.20
2023-03-21T10:13:33.703Z,69.28
2023-03-21T10:15:06.487Z,67.50
2023-03-21T10:16:40.929Z,69.18
2023-03-21T10:18:14.151Z,68.87
2023-03-21T10:19:47.052Z,67.88
2023-03-21T10:21:43.367Z,67.79
2023-03-21T10:23:13.688Z,67.33
2023-03-21T10:24:46.761Z,67.74
2023-03-21T10:26:21.035Z,64.31
2023-03-21T10:27:53.076Z,65.55
2023-03-21T10:29:27.072Z,64.84
2023-03-21T10:30:59.310Z,63.74
2023-03-21T10:32:31.062Z,63.12
2023-03-21T10:34:03.833Z,63.22
2023-03-21T10:35:37.434Z,63.07
2023-03-21T10:37:11.026Z,63.30
2023-03-21T10:38:45.093Z,62.48
2023-03-21T10:40:18.473Z,62.11
2023-03-21T10:41:50.489Z,62.09
2023-03-21T10:43:34.366Z,61.85
2023-03-21T10:45:08.458Z,61.35
2023-03-21T10:46:42.989Z,61.49
2023-03-21T10:48:15.054Z,63.08
2023-03-21T10:51:41.022Z,61.25
2023-03-21T10:53:16.186Z,60.17
2023-03-21T10:54:48.502Z,60.90
2023-03-21T10:56:23.112Z,60.52
2023-03-21T10:57:57.580Z,58.31
2023-03-21T10:59:34.534Z,61.36
2023-03-21T11:01:08.495Z,60.62
2023-03-21T11:02:40.529Z,61.41
2023-03-21T11:04:17.873Z,61.93
2023-03-21T11:05:53.651Z,62.79
2023-03-21T11:07:30.905Z,61.80
2023-03-21T11:09:05.674Z,62.37
2023-03-21T11:10:38.407Z,61.88
2023-03-21T11:12:12.453Z,62.68
2023-03-21T11:13:44.475Z,63.05
2023-03-21T11:15:27.746Z,62.08
2023-03-21T11:17:02.017Z,62.74
2023-03-21T11:18:33.720Z,62.43
2023-03-21T11:20:08.986Z,61.32
2023-03-21T11:21:40.750Z,61.78
2023-03-21T11:23:12.530Z,61.44
2023-03-21T11:24:44.250Z,63.74
2023-03-21T11:26:19.096Z,63.26
2023-03-21T11:27:53.285Z,61.77
2023-03-21T11:29:29.235Z,61.53
2023-03-21T11:31:01.708Z,61.61
2023-03-21T11:32:34.230Z,61.70
2023-03-21T11:34:06.452Z,62.84
2023-03-21T11:35:39.081Z,60.19
2023-03-21T11:37:17.509Z,62.38
2023-03-21T11:38:49.826Z,61.56
2023-03-21T11:40:23.625Z,61.67
2023-03-21T11:41:55.277Z,61.05
2023-03-21T11:43:29.503Z,61.09
2023-03-21T11:45:03.043Z,60.65
2023-03-21T11:46:35.365Z,59.84
2023-03-21T11:48:11.713Z,60.50
2023-03-21T11:49:43.300Z,60.33
2023-03-21T11:51:22.623Z,60.26
2023-03-21T11:53:15.257Z,60.55
2023-03-21T11:54:56.720Z,60.33
2023-03-21T11:56:29.567Z,60.80
2023-03-21T11:58:14.621Z,59.97
2023-03-21T11:59:50.258Z,59.57
2023-03-21T12:01:25.116Z,59.93
2023-03-21T12:03:09.603Z,60.07
2023-03-21T12:04:41.548Z,59.73
2023-03-21T12:06:17.541Z,59.57
2023-03-21T12:07:52.805Z,59.42
2023-03-21T12:09:34.269Z,59.65
2023-03-21T12:11:11.038Z,60.78
2023-03-21T12:12:46.422Z,61.77
2023-03-21T12:14:21.249Z,59.73
2023-03-21T12:15:58.927Z,59.50
2023-03-21T12:17:36.270Z,59.88
2023-03-21T12:19:33.446Z,59.10
2023-03-21T12:21:06.004Z,59.16
2023-03-21T12:22:41.337Z,60.32
2023-03-21T12:24:14.538Z,60.56
2023-03-21T12:25:47.706Z,58.59
2023-03-21T12:27:20.432Z,57.82
2023-03-21T12:29:02.382Z,58.35
2023-03-21T12:30:42.107Z,58.48
2023-03-21T12:32:22.574Z,59.54
2023-03-21T12:34:01.560Z,60.00
2023-03-21T12:35:44.565Z,57.50
2023-03-21T12:37:24.605Z,57.93
2023-03-21T12:39:00.981Z,58.09
2023-03-21T12:40:42.146Z,58.24
2023-03-21T12:42:37.246Z,58.03
2023-03-21T12:44:09.798Z,57.25
2023-03-21T12:45:47.104Z,57.36
2023-03-21T12:47:22.548Z,56.80
2023-03-21T12:48:56.047Z,57.99
2023-03-21T12:50:29.831Z,58.92
2023-03-21T12:52:03.337Z,57.50
2023-03-21T12:53:39.845Z,56.80
2023-03-21T12:55:14.549Z,56.54
2023-03-21T12:56:49.692Z,58.70
2023-03-21T12:58:24.442Z,56.39
2023-03-21T12:59:58.661Z,56.91
2023-03-21T13:01:30.310Z,57.32
2023-03-21T13:03:04.241Z,55.39
2023-03-21T13:04:42.477Z,57.08
2023-03-21T13:06:14.916Z,55.53
2023-03-21T13:07:48.787Z,56.81
2023-03-21T13:09:28.493Z,55.69
2023-03-21T13:11:03.497Z,56.59
2023-03-21T13:12:43.293Z,56.68
2023-03-21T13:14:16.275Z,55.58
2023-03-21T13:15:52.646Z,56.54
2023-03-21T13:17:26.296Z,55.14
2023-03-21T13:19:03.090Z,55.60
2023-03-21T13:20:37.721Z,55.16
2023-03-21T13:22:13.943Z,54.09
2023-03-21T13:23:58.798Z,55.26
2023-03-21T13:25:33.192Z,54.86
2023-03-21T13:27:09.137Z,55.91
2023-03-21T13:28:41.034Z,56.39
2023-03-21T13:30:19.447Z,56.06
2023-03-21T13:31:53.060Z,54.50
2023-03-21T13:33:29.391Z,53.47
2023-03-21T13:35:05.009Z,54.87
2023-03-21T13:36:38.380Z,54.42
2023-03-21T13:38:12.828Z,55.85
2023-03-21T13:39:45.371Z,54.74
2023-03-21T13:41:18.109Z,54.97
2023-03-21T13:42:51.873Z,55.49
2023-03-21T13:44:25.442Z,53.97
2023-03-21T13:45:57.124Z,54.30
2023-03-21T13:47:40.119Z,55.61
2023-03-21T13:49:15.787Z,57.50
2023-03-21T13:50:52.594Z,57.35
2023-03-21T13:52:27.814Z,59.09
2023-03-21T13:53:59.842Z,60.57
2023-03-21T13:55:36.687Z,60.80
2023-03-21T13:57:21.166Z,60.10
2023-03-21T13:59:02.778Z,59.08
2023-03-21T14:00:37.365Z,57.71
2023-03-21T14:02:23.952Z,58.27
2023-03-21T14:04:00.014Z,59.62
2023-03-21T14:05:31.887Z,57.86
2023-03-21T14:07:06.997Z,57.29
2023-03-21T14:08:39.864Z,58.93
2023-03-21T14:10:17.806Z,57.37
2023-03-21T14:11:54.715Z,57.66
2023-03-21T14:13:29.636Z,57.63
2023-03-21T14:15:13.984Z,58.79
2023-03-21T14:16:47.718Z,56.56
2023-03-21T14:18:35.358Z,57.89
2023-03-21T14:20:14.626Z,58.09
2023-03-21T14:21:47.870Z,57.94
2023-03-21T14:23:20.962Z,58.40
2023-03-21T14:24:57.121Z,59.31
2023-03-21T14:26:30.569Z,59.54
2023-03-21T14:28:04.705Z,57.98
2023-03-21T14:29:36.313Z,58.26
2023-03-21T14:31:12.415Z,59.75
2023-03-21T14:32:44.065Z,60.27
2023-03-21T14:34:16.851Z,60.23
2023-03-21T14:35:48.827Z,61.26
2023-03-21T14:37:28.486Z,61.38
2023-03-21T14:39:07.206Z,61.89
2023-03-21T14:40:39.034Z,61.01
2023-03-21T14:42:14.966Z,61.04
2023-03-21T14:44:01.120Z,61.75
2023-03-21T14:45:34.435Z,61.59
2023-03-21T14:47:06.838Z,61.37
2023-03-21T14:48:38.496Z,61.54
2023-03-21T14:50:10.764Z,61.02
2023-03-21T14:51:55.697Z,60.02
2023-03-21T14:53:28.154Z,60.87
2023-03-21T14:55:02.826Z,60.48
2023-03-21T14:56:34.494Z,60.78
2023-03-21T14:58:06.826Z,60.44
2023-03-21T14:59:39.002Z,59.65
2023-03-21T15:01:14.399Z,59.70
2023-03-21T15:02:46.310Z,59.79
2023-03-21T15:04:18.044Z,60.67
2023-03-21T15:05:49.799Z,60.93
2023-03-21T15:07:26.008Z,60.10
2023-03-21T15:08:58.669Z,60.31
2023-03-21T15:10:31.921Z,59.67
2023-03-21T15:12:07.542Z,59.38
2023-03-21T15:13:42.712Z,60.46
2023-03-21T15:15:14.343Z,60.43
2023-03-21T15:16:45.960Z,59.97
2023-03-21T15:18:19.303Z,59.79
2023-03-21T15:19:50.913Z,61.07
2023-03-21T15:21:23.639Z,60.55
2023-03-21T15:22:55.712Z,60.13
2023-03-21T15:24:28.197Z,60.23
2023-03-21T15:26:02.797Z,59.81
2023-03-21T15:27:36.611Z,60.74
2023-03-21T15:29:08.454Z,60.17
2023-03-21T15:30:40.710Z,60.72
2023-03-21T15:32:16.747Z,61.28
2023-03-21T15:33:48.682Z,61.15
2023-03-21T15:35:21.983Z,60.99
2023-03-21T15:36:56.121Z,61.41
2023-03-21T15:38:29.811Z,60.35
2023-03-21T15:40:09.675Z,61.39
2023-03-21T15:41:45.665Z,61.79
2023-03-21T15:43:18.067Z,61.15
2023-03-21T15:44:53.120Z,61.69
2023-03-21T15:46:33.091Z,61.84
2023-03-21T15:48:07.941Z,62.74
2023-03-21T15:49:40.430Z,62.04
2023-03-21T15:51:15.796Z,62.21
2023-03-21T15:52:47.804Z,62.01
2023-03-21T15:54:23.901Z,62.19
2023-03-21T15:55:57.032Z,61.87
2023-03-21T15:57:33.078Z,62.47
2023-03-21T15:59:05.657Z,62.46
2023-03-21T16:00:39.520Z,62.84
2023-03-21T16:02:15.500Z,62.49
2023-03-21T16:03:47.999Z,62.71
2023-03-21T16:05:26.840Z,62.81
2023-03-21T16:06:59.592Z,62.97
2023-03-21T16:08:33.660Z,62.65
2023-03-21T16:10:05.637Z,62.53
2023-03-21T16:11:38.781Z,62.43
2023-03-21T16:13:13.665Z,63.09
2023-03-21T16:14:47.282Z,62.61
2023-03-21T16:16:23.361Z,63.13
2023-03-21T16:17:55.898Z,62.96
2023-03-21T16:19:29.698Z,63.26
2023-03-21T16:21:01.817Z,63.34
2023-03-21T16:22:35.654Z,63.22
2023-03-21T16:24:09.112Z,63.47
2023-03-21T16:25:42.078Z,63.54
2023-03-21T16:27:13.674Z,63.34
2023-03-21T16:28:46.708Z,64.18
2023-03-21T16:30:19.664Z,63.20
2023-03-21T16:31:51.350Z,63.13
2023-03-21T16:33:25.375Z,63.70
2023-03-21T16:34:57.263Z,63.41
2023-03-21T16:36:29.814Z,63.38
2023-03-21T16:38:03.284Z,63.67
2023-03-21T16:39:34.905Z,63.45
2023-03-21T16:41:10.500Z,64.18
2023-03-21T16:42:42.073Z,64.00
2023-03-21T16:44:15.127Z,63.88
2023-03-21T16:45:46.980Z,64.19
2023-03-21T16:47:19.820Z,63.96
2023-03-21T16:48:53.851Z,64.54
2023-03-21T16:50:27.321Z,64.71
2023-03-21T16:51:58.892Z,64.47
2023-03-21T16:53:30.504Z,63.96
2023-03-21T16:55:02.142Z,64.60
2023-03-21T16:56:36.723Z,65.31
2023-03-21T16:58:08.355Z,64.35
2023-03-21T16:59:41.556Z,64.27
2023-03-21T17:01:14.601Z,64.86
2023-03-21T17:02:46.484Z,64.74
2023-03-21T17:04:18.346Z,65.12
2023-03-21T17:05:50.032Z,65.27
2023-03-21T17:07:22.083Z,65.45
2023-03-21T17:08:56.897Z,65.54
2023-03-21T17:10:29.778Z,66.00
2023-03-21T17:12:01.413Z,65.91
2023-03-21T17:13:33.024Z,66.10
2023-03-21T17:15:07.485Z,65.66
2023-03-21T17:16:40.373Z,66.21
2023-03-21T17:18:12.056Z,66.17
2023-03-21T17:19:43.659Z,65.68
2023-03-21T17:21:16.020Z,65.96
2023-03-21T17:22:48.066Z,65.94
2023-03-21T17:24:19.713Z,66.62
2023-03-21T17:25:51.687Z,66.54
2023-03-21T17:27:23.329Z,66.19
2023-03-21T17:28:56.737Z,66.70
2023-03-21T17:30:31.294Z,66.83
2023-03-21T17:32:02.917Z,66.55
2023-03-21T17:33:34.632Z,66.74
2023-03-21T17:35:06.986Z,67.09
2023-03-21T17:36:39.807Z,67.27
2023-03-21T17:38:12.842Z,66.91
2023-03-21T17:39:45.260Z,67.26
2023-03-21T17:41:17.825Z,67.05
2023-03-21T17:42:49.474Z,67.66
2023-03-21T17:44:21.149Z,67.95
2023-03-21T17:45:54.490Z,68.06
2023-03-21T17:47:26.443Z,68.38
2023-03-21T17:48:58.081Z,67.50
2023-03-21T17:50:33.980Z,67.39
2023-03-21T17:52:05.604Z,67.25
2023-03-21T17:53:37.252Z,67.19
2023-03-21T17:55:08.823Z,67.51
2023-03-21T17:56:41.784Z,67.48
2023-03-21T17:58:13.738Z,67.04
2023-03-21T17:59:45.326Z,68.04
2023-03-21T18:01:18.341Z,67.53
2023-03-21T18:02:50.117Z,67.43
2023-03-21T18:04:21.760Z,67.54
2023-03-21T18:05:53.514Z,67.42
2023-03-21T18:08:03.738Z,68.38
2023-03-21T18:09:21.524Z,67.16
2023-03-21T18:10:53.677Z,67.56
2023-03-21T18:12:25.353Z,67.65
2023-03-21T18:14:13.814Z,68.24
2023-03-21T18:15:48.360Z,68.48
2023-03-21T18:17:22.671Z,68.89
2023-03-21T18:18:56.650Z,68.09
2023-03-21T18:20:49.817Z,68.38
2023-03-21T18:22:20.147Z,69.49
2023-03-21T18:23:51.890Z,69.42
2023-03-21T18:25:23.457Z,69.38
2023-03-21T18:26:55.266Z,69.12
2023-03-21T18:28:26.870Z,69.06
2023-03-21T18:32:05.127Z,69.23
2023-03-21T18:33:40.476Z,68.78
2023-03-21T18:35:12.444Z,68.25
2023-03-21T18:36:44.052Z,68.94
2023-03-21T18:38:15.712Z,68.83
2023-03-21T18:39:48.458Z,69.81
2023-03-21T18:41:22.798Z,70.40
2023-03-21T18:43:44.179Z,70.55
2023-03-21T18:44:47.633Z,71.15
2023-03-21T18:46:19.387Z,71.11
2023-03-21T18:47:52.629Z,71.82
2023-03-21T18:51:19.237Z,70.67
2023-03-21T18:52:51.477Z,70.42
2023-03-21T18:54:23.578Z,69.06
2023-03-21T18:55:55.287Z,69.13
2023-03-21T18:57:36.437Z,69.35
2023-03-21T18:59:10.027Z,68.75
2023-03-21T19:00:43.885Z,68.93
2023-03-21T19:02:16.806Z,69.72
2023-03-21T19:04:14.440Z,69.63
2023-03-21T19:05:43.285Z,69.53
2023-03-21T19:07:15.490Z,69.19
2023-03-21T19:08:47.206Z,68.85
2023-03-21T19:10:20.802Z,69.40
2023-03-21T19:11:52.805Z,69.89
2023-03-21T19:13:24.377Z,69.38
2023-03-21T19:14:56.014Z,68.86
2023-03-21T19:16:32.651Z,69.17
2023-03-21T19:20:05.650Z,69.90
2023-03-21T19:21:38.680Z,69.95
2023-03-21T19:23:10.938Z,70.00
2023-03-21T19:24:43.010Z,69.98
2023-03-21T19:26:14.672Z,70.35
2023-03-21T19:27:46.290Z,71.07
2023-03-21T19:29:17.887Z,70.80
2023-03-21T19:30:50.842Z,71.29
2023-03-21T19:32:22.849Z,71.22
2023-03-21T19:33:54.536Z,71.53
2023-03-21T19:35:27.092Z,71.86
2023-03-21T19:37:02.481Z,72.06
2023-03-21T19:38:34.350Z,71.97
2023-03-21T19:40:07.430Z,71.85
2023-03-21T19:41:40.484Z,72.03
2023-03-21T19:43:31.698Z,72.51
2023-03-21T19:45:04.152Z,73.49
2023-03-21T19:46:36.046Z,74.12
2023-03-21T19:48:07.792Z,73.52
2023-03-21T19:51:33.341Z,74.02
2023-03-21T19:53:06.605Z,73.03
2023-03-21T19:54:38.354Z,73.43
2023-03-21T19:56:21.108Z,74.07
2023-03-21T19:57:53.847Z,74.43
2023-03-21T19:59:25.563Z,73.86
2023-03-21T20:00:57.171Z,74.07
2023-03-21T20:02:37.117Z,73.88
2023-03-21T20:04:09.076Z,73.79
2023-03-21T20:05:40.750Z,73.70
2023-03-21T20:07:12.487Z,73.50
2023-03-21T20:10:37.391Z,74.39
2023-03-21T20:12:09.170Z,74.76
2023-03-21T20:13:40.973Z,76.33
2023-03-21T20:15:19.215Z,75.97
2023-03-21T20:16:55.382Z,75.79
2023-03-21T20:18:27.304Z,75.19
2023-03-21T20:19:59.888Z,74.56
2023-03-21T20:21:40.132Z,75.15
2023-03-21T20:23:17.719Z,74.55
2023-03-21T20:24:51.701Z,74.48
2023-03-21T20:26:23.338Z,75.47
2023-03-21T20:28:12.786Z,74.29
2023-03-21T20:30:08.757Z,74.93